sensor_id;sensor_type;location;lat;lon;timestamp;P1;durP1;ratioP1;P2;durP2;ratioP2
40971;SDS011;26701;47.408;19.174;2023-07-31T00:00:34;269.33;;;256.58;;
40971;SDS011;26701;47.408;19.174;2023-07-31T00:03:00;256.00;;;244.45;;
40971;SDS011;26701;47.408;19.174;2023-07-31T00:05:26;254.25;;;242.77;;
40971;SDS011;26701;47.408;19.174;2023-07-31T00:07:52;268.08;;;255.82;;
40971;SDS011;26701;47.408;19.174;2023-07-31T00:10:19;266.05;;;253.95;;
40971;SDS011;26701;47.408;19.174;2023-07-31T00:12:46;261.17;;;249.35;;
40971;SDS011;26701;47.408;19.174;2023-07-31T00:15:13;262.25;;;250.32;;
40971;SDS011;26701;47.408;19.174;2023-07-31T00:17:39;257.52;;;245.98;;
40971;SDS011;26701;47.408;19.174;2023-07-31T00:20:05;259.10;;;247.35;;
40971;SDS011;26701;47.408;19.174;2023-07-31T00:22:31;255.32;;;243.85;;
40971;SDS011;26701;47.408;19.174;2023-07-31T00:24:57;255.65;;;243.98;;
40971;SDS011;26701;47.408;19.174;2023-07-31T00:27:24;265.75;;;253.35;;
40971;SDS011;26701;47.408;19.174;2023-07-31T00:29:51;260.95;;;249.15;;
40971;SDS011;26701;47.408;19.174;2023-07-31T00:32:17;257.48;;;245.52;;
40971;SDS011;26701;47.408;19.174;2023-07-31T00:34:43;256.50;;;244.55;;
40971;SDS011;26701;47.408;19.174;2023-07-31T00:37:09;258.00;;;245.85;;
40971;SDS011;26701;47.408;19.174;2023-07-31T00:39:35;243.10;;;231.52;;
40971;SDS011;26701;47.408;19.174;2023-07-31T00:42:02;251.77;;;240.27;;
40971;SDS011;26701;47.408;19.174;2023-07-31T00:44:28;252.35;;;240.10;;
40971;SDS011;26701;47.408;19.174;2023-07-31T00:46:54;246.98;;;235.30;;
40971;SDS011;26701;47.408;19.174;2023-07-31T00:49:22;242.70;;;231.32;;
40971;SDS011;26701;47.408;19.174;2023-07-31T00:51:49;246.70;;;235.30;;
40971;SDS011;26701;47.408;19.174;2023-07-31T00:54:17;248.82;;;237.10;;
40971;SDS011;26701;47.408;19.174;2023-07-31T00:56:44;248.27;;;236.73;;
40971;SDS011;26701;47.408;19.174;2023-07-31T00:59:11;247.70;;;236.38;;
40971;SDS011;26701;47.408;19.174;2023-07-31T01:01:37;230.63;;;219.80;;
40971;SDS011;26701;47.408;19.174;2023-07-31T01:04:03;218.38;;;208.13;;
40971;SDS011;26701;47.408;19.174;2023-07-31T01:06:35;203.27;;;193.95;;
40971;SDS011;26701;47.408;19.174;2023-07-31T01:09:04;207.02;;;197.75;;
40971;SDS011;26701;47.408;19.174;2023-07-31T01:11:33;175.45;;;167.15;;
40971;SDS011;26701;47.408;19.174;2023-07-31T01:14:01;193.85;;;185.00;;
40971;SDS011;26701;47.408;19.174;2023-07-31T01:16:28;202.70;;;193.10;;
40971;SDS011;26701;47.408;19.174;2023-07-31T01:18:54;117.22;;;111.55;;
40971;SDS011;26701;47.408;19.174;2023-07-31T01:21:37;99.75;;;94.75;;
40971;SDS011;26701;47.408;19.174;2023-07-31T01:24:20;131.43;;;125.25;;
40971;SDS011;26701;47.408;19.174;2023-07-31T01:26:49;96.40;;;91.63;;
40971;SDS011;26701;47.408;19.174;2023-07-31T01:29:23;105.80;;;100.40;;
40971;SDS011;26701;47.408;19.174;2023-07-31T01:32:01;203.32;;;193.98;;
40971;SDS011;26701;47.408;19.174;2023-07-31T01:34:28;195.25;;;185.98;;
40971;SDS011;26701;47.408;19.174;2023-07-31T01:36:55;198.65;;;189.68;;
40971;SDS011;26701;47.408;19.174;2023-07-31T01:39:22;198.05;;;189.20;;
40971;SDS011;26701;47.408;19.174;2023-07-31T01:41:49;180.68;;;172.45;;
40971;SDS011;26701;47.408;19.174;2023-07-31T01:44:15;189.98;;;181.32;;
40971;SDS011;26701;47.408;19.174;2023-07-31T01:46:41;191.45;;;182.32;;
40971;SDS011;26701;47.408;19.174;2023-07-31T01:49:07;192.18;;;183.30;;
40971;SDS011;26701;47.408;19.174;2023-07-31T01:51:34;194.70;;;185.70;;
40971;SDS011;26701;47.408;19.174;2023-07-31T01:54:01;199.50;;;190.55;;
40971;SDS011;26701;47.408;19.174;2023-07-31T01:56:27;195.63;;;186.45;;
40971;SDS011;26701;47.408;19.174;2023-07-31T01:58:53;191.25;;;182.52;;
40971;SDS011;26701;47.408;19.174;2023-07-31T02:01:19;187.43;;;178.93;;
40971;SDS011;26701;47.408;19.174;2023-07-31T02:03:45;191.00;;;182.32;;
40971;SDS011;26701;47.408;19.174;2023-07-31T02:06:13;183.02;;;174.77;;
40971;SDS011;26701;47.408;19.174;2023-07-31T02:08:39;183.10;;;174.65;;
40971;SDS011;26701;47.408;19.174;2023-07-31T02:11:05;190.90;;;181.90;;
40971;SDS011;26701;47.408;19.174;2023-07-31T02:13:32;189.43;;;180.70;;
40971;SDS011;26701;47.408;19.174;2023-07-31T02:15:58;181.85;;;173.52;;
40971;SDS011;26701;47.408;19.174;2023-07-31T02:18:24;183.75;;;175.13;;
40971;SDS011;26701;47.408;19.174;2023-07-31T02:20:51;174.38;;;166.27;;
40971;SDS011;26701;47.408;19.174;2023-07-31T02:23:20;177.30;;;169.30;;
40971;SDS011;26701;47.408;19.174;2023-07-31T02:25:46;184.70;;;176.00;;
40971;SDS011;26701;47.408;19.174;2023-07-31T02:28:13;170.50;;;162.70;;
40971;SDS011;26701;47.408;19.174;2023-07-31T02:30:39;177.10;;;169.00;;
40971;SDS011;26701;47.408;19.174;2023-07-31T02:33:05;178.77;;;170.57;;
40971;SDS011;26701;47.408;19.174;2023-07-31T02:35:31;177.07;;;168.73;;
40971;SDS011;26701;47.408;19.174;2023-07-31T02:37:57;174.60;;;166.75;;
40971;SDS011;26701;47.408;19.174;2023-07-31T02:40:23;187.88;;;179.23;;
40971;SDS011;26701;47.408;19.174;2023-07-31T02:42:49;175.48;;;167.60;;
40971;SDS011;26701;47.408;19.174;2023-07-31T02:45:16;173.50;;;165.55;;
40971;SDS011;26701;47.408;19.174;2023-07-31T02:47:42;185.05;;;176.40;;
40971;SDS011;26701;47.408;19.174;2023-07-31T02:50:08;172.25;;;163.70;;
40971;SDS011;26701;47.408;19.174;2023-07-31T02:52:34;180.88;;;172.35;;
40971;SDS011;26701;47.408;19.174;2023-07-31T02:55:00;185.38;;;176.80;;
40971;SDS011;26701;47.408;19.174;2023-07-31T02:57:27;182.82;;;171.35;;
40971;SDS011;26701;47.408;19.174;2023-07-31T02:59:53;177.65;;;169.43;;
40971;SDS011;26701;47.408;19.174;2023-07-31T03:02:19;176.10;;;168.23;;
40971;SDS011;26701;47.408;19.174;2023-07-31T03:04:45;175.45;;;167.30;;
40971;SDS011;26701;47.408;19.174;2023-07-31T03:07:11;174.05;;;166.15;;
40971;SDS011;26701;47.408;19.174;2023-07-31T03:09:37;175.65;;;167.63;;
40971;SDS011;26701;47.408;19.174;2023-07-31T03:12:03;166.25;;;158.70;;
40971;SDS011;26701;47.408;19.174;2023-07-31T03:14:29;163.77;;;156.07;;
40971;SDS011;26701;47.408;19.174;2023-07-31T03:16:56;176.77;;;168.63;;
40971;SDS011;26701;47.408;19.174;2023-07-31T03:19:22;179.90;;;171.57;;
40971;SDS011;26701;47.408;19.174;2023-07-31T03:21:48;162.30;;;154.50;;
40971;SDS011;26701;47.408;19.174;2023-07-31T03:24:14;177.30;;;169.20;;
40971;SDS011;26701;47.408;19.174;2023-07-31T03:26:40;178.18;;;170.10;;
40971;SDS011;26701;47.408;19.174;2023-07-31T03:29:07;184.13;;;175.52;;
40971;SDS011;26701;47.408;19.174;2023-07-31T03:31:33;170.73;;;162.30;;
40971;SDS011;26701;47.408;19.174;2023-07-31T03:34:00;173.32;;;165.45;;
40971;SDS011;26701;47.408;19.174;2023-07-31T03:36:26;178.00;;;169.73;;
40971;SDS011;26701;47.408;19.174;2023-07-31T03:38:52;162.73;;;155.18;;
40971;SDS011;26701;47.408;19.174;2023-07-31T03:41:18;178.60;;;170.52;;
40971;SDS011;26701;47.408;19.174;2023-07-31T03:43:46;181.45;;;173.00;;
40971;SDS011;26701;47.408;19.174;2023-07-31T03:46:12;176.70;;;168.63;;
40971;SDS011;26701;47.408;19.174;2023-07-31T03:48:38;180.50;;;172.40;;
40971;SDS011;26701;47.408;19.174;2023-07-31T03:51:04;176.00;;;168.00;;
40971;SDS011;26701;47.408;19.174;2023-07-31T03:53:30;164.80;;;156.90;;
40971;SDS011;26701;47.408;19.174;2023-07-31T03:55:56;180.73;;;172.43;;
40971;SDS011;26701;47.408;19.174;2023-07-31T03:58:23;185.10;;;176.45;;
40971;SDS011;26701;47.408;19.174;2023-07-31T04:00:49;184.80;;;176.32;;
40971;SDS011;26701;47.408;19.174;2023-07-31T04:03:15;182.20;;;173.80;;
40971;SDS011;26701;47.408;19.174;2023-07-31T04:05:41;176.82;;;168.68;;
40971;SDS011;26701;47.408;19.174;2023-07-31T04:08:07;179.23;;;171.07;;
40971;SDS011;26701;47.408;19.174;2023-07-31T04:10:33;186.18;;;177.35;;
40971;SDS011;26701;47.408;19.174;2023-07-31T04:12:59;182.40;;;173.93;;
40971;SDS011;26701;47.408;19.174;2023-07-31T04:15:26;185.93;;;176.93;;
40971;SDS011;26701;47.408;19.174;2023-07-31T04:17:52;192.65;;;183.57;;
40971;SDS011;26701;47.408;19.174;2023-07-31T04:20:18;184.98;;;176.30;;
40971;SDS011;26701;47.408;19.174;2023-07-31T04:22:44;183.88;;;175.20;;
40971;SDS011;26701;47.408;19.174;2023-07-31T04:25:10;176.98;;;168.90;;
40971;SDS011;26701;47.408;19.174;2023-07-31T04:27:36;178.27;;;169.98;;
40971;SDS011;26701;47.408;19.174;2023-07-31T04:30:02;166.18;;;158.18;;
40971;SDS011;26701;47.408;19.174;2023-07-31T04:32:28;162.60;;;154.77;;
40971;SDS011;26701;47.408;19.174;2023-07-31T04:34:55;173.57;;;165.77;;
40971;SDS011;26701;47.408;19.174;2023-07-31T04:37:21;174.40;;;165.10;;
40971;SDS011;26701;47.408;19.174;2023-07-31T04:39:47;170.63;;;163.00;;
40971;SDS011;26701;47.408;19.174;2023-07-31T04:42:13;164.20;;;156.20;;
40971;SDS011;26701;47.408;19.174;2023-07-31T04:44:39;169.57;;;161.60;;
40971;SDS011;26701;47.408;19.174;2023-07-31T04:47:05;158.60;;;151.32;;
40971;SDS011;26701;47.408;19.174;2023-07-31T04:49:32;152.00;;;144.63;;
40971;SDS011;26701;47.408;19.174;2023-07-31T04:51:58;158.25;;;150.82;;
40971;SDS011;26701;47.408;19.174;2023-07-31T04:54:24;163.98;;;156.05;;
40971;SDS011;26701;47.408;19.174;2023-07-31T04:56:50;152.82;;;145.43;;
40971;SDS011;26701;47.408;19.174;2023-07-31T04:59:17;149.32;;;142.15;;
40971;SDS011;26701;47.408;19.174;2023-07-31T05:01:43;152.27;;;144.60;;
40971;SDS011;26701;47.408;19.174;2023-07-31T05:04:13;163.85;;;155.80;;
40971;SDS011;26701;47.408;19.174;2023-07-31T05:06:39;159.13;;;151.68;;
40971;SDS011;26701;47.408;19.174;2023-07-31T05:09:06;161.73;;;154.13;;
40971;SDS011;26701;47.408;19.174;2023-07-31T05:11:32;161.65;;;154.18;;
40971;SDS011;26701;47.408;19.174;2023-07-31T05:13:58;159.55;;;151.80;;
40971;SDS011;26701;47.408;19.174;2023-07-31T05:16:24;162.05;;;154.32;;
40971;SDS011;26701;47.408;19.174;2023-07-31T05:18:50;164.90;;;157.05;;
40971;SDS011;26701;47.408;19.174;2023-07-31T05:21:16;161.10;;;153.60;;
40971;SDS011;26701;47.408;19.174;2023-07-31T05:23:42;158.13;;;150.77;;
40971;SDS011;26701;47.408;19.174;2023-07-31T05:26:08;162.98;;;155.35;;
40971;SDS011;26701;47.408;19.174;2023-07-31T05:28:35;166.10;;;158.43;;
40971;SDS011;26701;47.408;19.174;2023-07-31T05:31:02;159.85;;;152.10;;
40971;SDS011;26701;47.408;19.174;2023-07-31T05:33:28;166.48;;;159.00;;
40971;SDS011;26701;47.408;19.174;2023-07-31T05:35:54;159.82;;;152.27;;
40971;SDS011;26701;47.408;19.174;2023-07-31T05:38:20;171.55;;;163.45;;
40971;SDS011;26701;47.408;19.174;2023-07-31T05:40:47;170.60;;;161.63;;
40971;SDS011;26701;47.408;19.174;2023-07-31T05:43:13;173.68;;;165.40;;
40971;SDS011;26701;47.408;19.174;2023-07-31T05:45:40;151.63;;;144.60;;
40971;SDS011;26701;47.408;19.174;2023-07-31T05:48:06;165.85;;;158.35;;
40971;SDS011;26701;47.408;19.174;2023-07-31T05:50:32;172.50;;;164.73;;
40971;SDS011;26701;47.408;19.174;2023-07-31T05:52:58;164.38;;;156.80;;
40971;SDS011;26701;47.408;19.174;2023-07-31T05:55:24;164.60;;;157.05;;
40971;SDS011;26701;47.408;19.174;2023-07-31T05:57:54;171.15;;;163.25;;
40971;SDS011;26701;47.408;19.174;2023-07-31T06:00:20;171.20;;;163.10;;
40971;SDS011;26701;47.408;19.174;2023-07-31T06:02:49;162.30;;;154.73;;
40971;SDS011;26701;47.408;19.174;2023-07-31T06:05:15;129.02;;;122.55;;
40971;SDS011;26701;47.408;19.174;2023-07-31T06:07:41;168.35;;;160.32;;
40971;SDS011;26701;47.408;19.174;2023-07-31T06:10:07;148.40;;;141.13;;
40971;SDS011;26701;47.408;19.174;2023-07-31T06:12:34;181.35;;;173.20;;
40971;SDS011;26701;47.408;19.174;2023-07-31T06:15:01;179.15;;;170.82;;
40971;SDS011;26701;47.408;19.174;2023-07-31T06:17:28;151.13;;;144.30;;
40971;SDS011;26701;47.408;19.174;2023-07-31T06:19:56;182.15;;;173.18;;
40971;SDS011;26701;47.408;19.174;2023-07-31T06:22:22;171.70;;;163.48;;
40971;SDS011;26701;47.408;19.174;2023-07-31T06:24:48;181.57;;;173.13;;
40971;SDS011;26701;47.408;19.174;2023-07-31T06:27:14;172.95;;;164.63;;
40971;SDS011;26701;47.408;19.174;2023-07-31T06:29:41;182.32;;;173.88;;
40971;SDS011;26701;47.408;19.174;2023-07-31T06:32:07;175.00;;;166.70;;
40971;SDS011;26701;47.408;19.174;2023-07-31T06:34:33;178.15;;;169.55;;
40971;SDS011;26701;47.408;19.174;2023-07-31T06:36:59;187.77;;;178.65;;
40971;SDS011;26701;47.408;19.174;2023-07-31T06:39:26;179.05;;;170.38;;
40971;SDS011;26701;47.408;19.174;2023-07-31T06:41:52;180.20;;;171.15;;
40971;SDS011;26701;47.408;19.174;2023-07-31T06:44:19;184.30;;;175.15;;
40971;SDS011;26701;47.408;19.174;2023-07-31T06:46:45;165.10;;;157.10;;
40971;SDS011;26701;47.408;19.174;2023-07-31T06:49:11;191.27;;;182.02;;
40971;SDS011;26701;47.408;19.174;2023-07-31T06:51:40;179.95;;;171.20;;
40971;SDS011;26701;47.408;19.174;2023-07-31T06:54:06;187.40;;;178.32;;
40971;SDS011;26701;47.408;19.174;2023-07-31T06:56:32;180.93;;;172.20;;
40971;SDS011;26701;47.408;19.174;2023-07-31T06:58:58;186.32;;;177.55;;
40971;SDS011;26701;47.408;19.174;2023-07-31T07:01:24;248.07;;;224.80;;
40971;SDS011;26701;47.408;19.174;2023-07-31T07:03:51;179.30;;;170.57;;
40971;SDS011;26701;47.408;19.174;2023-07-31T07:06:17;188.10;;;178.95;;
40971;SDS011;26701;47.408;19.174;2023-07-31T07:08:43;165.27;;;157.63;;
40971;SDS011;26701;47.408;19.174;2023-07-31T07:11:09;178.35;;;170.15;;
40971;SDS011;26701;47.408;19.174;2023-07-31T07:13:35;168.15;;;160.30;;
40971;SDS011;26701;47.408;19.174;2023-07-31T07:16:01;177.70;;;169.10;;
40971;SDS011;26701;47.408;19.174;2023-07-31T07:18:27;178.10;;;169.50;;
40971;SDS011;26701;47.408;19.174;2023-07-31T07:20:54;175.55;;;167.18;;
40971;SDS011;26701;47.408;19.174;2023-07-31T07:23:22;186.40;;;177.32;;
40971;SDS011;26701;47.408;19.174;2023-07-31T07:25:48;186.15;;;177.23;;
40971;SDS011;26701;47.408;19.174;2023-07-31T07:28:14;176.38;;;167.82;;
40971;SDS011;26701;47.408;19.174;2023-07-31T07:30:40;183.30;;;173.68;;
40971;SDS011;26701;47.408;19.174;2023-07-31T07:33:06;185.07;;;176.48;;
40971;SDS011;26701;47.408;19.174;2023-07-31T07:35:33;179.57;;;171.02;;
40971;SDS011;26701;47.408;19.174;2023-07-31T07:38:00;176.48;;;168.18;;
40971;SDS011;26701;47.408;19.174;2023-07-31T07:40:26;191.63;;;182.27;;
40971;SDS011;26701;47.408;19.174;2023-07-31T07:42:52;185.25;;;176.65;;
40971;SDS011;26701;47.408;19.174;2023-07-31T07:45:18;190.13;;;181.02;;
40971;SDS011;26701;47.408;19.174;2023-07-31T07:47:44;198.23;;;188.63;;
40971;SDS011;26701;47.408;19.174;2023-07-31T07:50:10;223.23;;;211.88;;
40971;SDS011;26701;47.408;19.174;2023-07-31T07:52:36;257.42;;;244.57;;
40971;SDS011;26701;47.408;19.174;2023-07-31T07:55:03;258.85;;;246.23;;
40971;SDS011;26701;47.408;19.174;2023-07-31T07:57:29;267.25;;;253.85;;
40971;SDS011;26701;47.408;19.174;2023-07-31T07:59:55;263.50;;;250.60;;
40971;SDS011;26701;47.408;19.174;2023-07-31T08:02:21;265.10;;;251.77;;
40971;SDS011;26701;47.408;19.174;2023-07-31T08:04:48;257.55;;;244.85;;
40971;SDS011;26701;47.408;19.174;2023-07-31T08:07:14;245.32;;;233.25;;
40971;SDS011;26701;47.408;19.174;2023-07-31T08:09:40;244.93;;;233.00;;
40971;SDS011;26701;47.408;19.174;2023-07-31T08:12:06;256.58;;;244.13;;
40971;SDS011;26701;47.408;19.174;2023-07-31T08:14:33;266.70;;;253.80;;
40971;SDS011;26701;47.408;19.174;2023-07-31T08:16:59;271.25;;;257.73;;
40971;SDS011;26701;47.408;19.174;2023-07-31T08:19:25;264.58;;;251.40;;
40971;SDS011;26701;47.408;19.174;2023-07-31T08:21:51;259.67;;;247.23;;
40971;SDS011;26701;47.408;19.174;2023-07-31T08:24:18;250.35;;;238.30;;
40971;SDS011;26701;47.408;19.174;2023-07-31T08:26:44;248.80;;;237.02;;
40971;SDS011;26701;47.408;19.174;2023-07-31T08:29:10;253.98;;;241.50;;
40971;SDS011;26701;47.408;19.174;2023-07-31T08:31:36;260.45;;;247.70;;
40971;SDS011;26701;47.408;19.174;2023-07-31T08:34:02;260.95;;;248.18;;
40971;SDS011;26701;47.408;19.174;2023-07-31T08:36:28;270.27;;;256.65;;
40971;SDS011;26701;47.408;19.174;2023-07-31T08:38:54;277.55;;;262.83;;
40971;SDS011;26701;47.408;19.174;2023-07-31T08:41:20;271.70;;;257.27;;
40971;SDS011;26701;47.408;19.174;2023-07-31T08:43:46;261.65;;;248.85;;
40971;SDS011;26701;47.408;19.174;2023-07-31T08:46:13;249.63;;;236.90;;
40971;SDS011;26701;47.408;19.174;2023-07-31T08:48:41;258.77;;;244.98;;
40971;SDS011;26701;47.408;19.174;2023-07-31T08:51:07;247.80;;;235.20;;
40971;SDS011;26701;47.408;19.174;2023-07-31T08:53:33;240.43;;;228.35;;
40971;SDS011;26701;47.408;19.174;2023-07-31T08:56:00;251.60;;;239.13;;
40971;SDS011;26701;47.408;19.174;2023-07-31T08:58:27;248.63;;;236.27;;
40971;SDS011;26701;47.408;19.174;2023-07-31T09:00:54;269.00;;;254.75;;
40971;SDS011;26701;47.408;19.174;2023-07-31T09:03:21;237.95;;;225.90;;
40971;SDS011;26701;47.408;19.174;2023-07-31T09:05:48;225.60;;;214.00;;
40971;SDS011;26701;47.408;19.174;2023-07-31T09:08:17;231.80;;;220.25;;
40971;SDS011;26701;47.408;19.174;2023-07-31T09:10:44;220.18;;;208.75;;
40971;SDS011;26701;47.408;19.174;2023-07-31T09:13:17;211.32;;;200.80;;
40971;SDS011;26701;47.408;19.174;2023-07-31T09:15:43;223.00;;;211.43;;
40971;SDS011;26701;47.408;19.174;2023-07-31T09:18:10;223.43;;;211.90;;
40971;SDS011;26701;47.408;19.174;2023-07-31T09:20:37;212.30;;;201.45;;
40971;SDS011;26701;47.408;19.174;2023-07-31T09:23:10;210.13;;;199.80;;
40971;SDS011;26701;47.408;19.174;2023-07-31T09:25:37;217.32;;;205.25;;
40971;SDS011;26701;47.408;19.174;2023-07-31T09:28:05;212.45;;;201.70;;
40971;SDS011;26701;47.408;19.174;2023-07-31T09:30:45;213.70;;;202.68;;
40971;SDS011;26701;47.408;19.174;2023-07-31T09:33:13;225.90;;;214.63;;
40971;SDS011;26701;47.408;19.174;2023-07-31T09:35:39;190.68;;;181.13;;
40971;SDS011;26701;47.408;19.174;2023-07-31T09:38:10;195.90;;;185.93;;
40971;SDS011;26701;47.408;19.174;2023-07-31T09:40:38;217.20;;;205.73;;
40971;SDS011;26701;47.408;19.174;2023-07-31T09:43:08;241.10;;;225.07;;
40971;SDS011;26701;47.408;19.174;2023-07-31T09:45:42;224.82;;;213.02;;
40971;SDS011;26701;47.408;19.174;2023-07-31T09:48:09;217.30;;;206.20;;
40971;SDS011;26701;47.408;19.174;2023-07-31T09:50:37;201.60;;;191.48;;
40971;SDS011;26701;47.408;19.174;2023-07-31T09:53:04;215.95;;;205.15;;
40971;SDS011;26701;47.408;19.174;2023-07-31T09:55:30;210.38;;;199.45;;
40971;SDS011;26701;47.408;19.174;2023-07-31T09:57:57;212.75;;;201.75;;
40971;SDS011;26701;47.408;19.174;2023-07-31T10:00:23;238.07;;;225.25;;
40971;SDS011;26701;47.408;19.174;2023-07-31T10:02:53;220.38;;;208.70;;
40971;SDS011;26701;47.408;19.174;2023-07-31T10:05:20;213.43;;;202.18;;
40971;SDS011;26701;47.408;19.174;2023-07-31T10:08:04;206.50;;;195.57;;
40971;SDS011;26701;47.408;19.174;2023-07-31T10:10:32;208.38;;;196.98;;
40971;SDS011;26701;47.408;19.174;2023-07-31T10:12:59;216.45;;;204.82;;
40971;SDS011;26701;47.408;19.174;2023-07-31T10:15:25;220.00;;;208.35;;
40971;SDS011;26701;47.408;19.174;2023-07-31T10:17:52;226.25;;;213.85;;
40971;SDS011;26701;47.408;19.174;2023-07-31T10:20:20;230.90;;;218.38;;
40971;SDS011;26701;47.408;19.174;2023-07-31T10:22:46;235.82;;;222.65;;
40971;SDS011;26701;47.408;19.174;2023-07-31T10:25:14;257.77;;;243.40;;
40971;SDS011;26701;47.408;19.174;2023-07-31T10:27:41;265.00;;;249.98;;
40971;SDS011;26701;47.408;19.174;2023-07-31T10:30:08;286.52;;;270.00;;
40971;SDS011;26701;47.408;19.174;2023-07-31T10:32:35;311.90;;;293.13;;
40971;SDS011;26701;47.408;19.174;2023-07-31T10:35:03;307.63;;;289.48;;
40971;SDS011;26701;47.408;19.174;2023-07-31T10:37:30;318.10;;;299.17;;
40971;SDS011;26701;47.408;19.174;2023-07-31T10:42:35;382.00;;;357.33;;
40971;SDS011;26701;47.408;19.174;2023-07-31T10:45:03;389.33;;;364.77;;
40971;SDS011;26701;47.408;19.174;2023-07-31T10:47:31;440.05;;;410.98;;
40971;SDS011;26701;47.408;19.174;2023-07-31T10:50:19;802.75;;;746.60;;
40971;SDS011;26701;47.408;19.174;2023-07-31T10:52:47;327.05;;;306.70;;
40971;SDS011;26701;47.408;19.174;2023-07-31T10:55:59;305.80;;;287.63;;
40971;SDS011;26701;47.408;19.174;2023-07-31T10:58:10;332.45;;;312.05;;
40971;SDS011;26701;47.408;19.174;2023-07-31T11:00:37;342.60;;;320.63;;
40971;SDS011;26701;47.408;19.174;2023-07-31T11:03:07;315.85;;;296.55;;
40971;SDS011;26701;47.408;19.174;2023-07-31T11:05:42;315.00;;;295.85;;
40971;SDS011;26701;47.408;19.174;2023-07-31T11:08:16;324.75;;;304.73;;
40971;SDS011;26701;47.408;19.174;2023-07-31T11:10:45;340.75;;;318.58;;
40971;SDS011;26701;47.408;19.174;2023-07-31T11:13:12;330.90;;;309.92;;
40971;SDS011;26701;47.408;19.174;2023-07-31T11:15:38;323.60;;;303.27;;
40971;SDS011;26701;47.408;19.174;2023-07-31T11:18:04;331.50;;;310.30;;
40971;SDS011;26701;47.408;19.174;2023-07-31T11:20:34;348.70;;;326.30;;
40971;SDS011;26701;47.408;19.174;2023-07-31T11:23:07;381.73;;;356.63;;
40971;SDS011;26701;47.408;19.174;2023-07-31T11:25:34;380.83;;;356.10;;
40971;SDS011;26701;47.408;19.174;2023-07-31T11:28:04;384.42;;;359.17;;
40971;SDS011;26701;47.408;19.174;2023-07-31T11:30:40;378.38;;;354.05;;
40971;SDS011;26701;47.408;19.174;2023-07-31T11:33:07;416.38;;;387.60;;
40971;SDS011;26701;47.408;19.174;2023-07-31T11:35:51;385.02;;;360.23;;
40971;SDS011;26701;47.408;19.174;2023-07-31T11:38:31;397.02;;;371.13;;
40971;SDS011;26701;47.408;19.174;2023-07-31T11:41:01;392.58;;;366.90;;
40971;SDS011;26701;47.408;19.174;2023-07-31T11:43:30;345.52;;;323.85;;
40971;SDS011;26701;47.408;19.174;2023-07-31T11:45:56;337.00;;;316.13;;
40971;SDS011;26701;47.408;19.174;2023-07-31T11:48:24;326.98;;;306.88;;
40971;SDS011;26701;47.408;19.174;2023-07-31T11:50:57;328.80;;;308.60;;
40971;SDS011;26701;47.408;19.174;2023-07-31T11:53:27;317.83;;;298.67;;
40971;SDS011;26701;47.408;19.174;2023-07-31T11:56:00;342.48;;;321.17;;
40971;SDS011;26701;47.408;19.174;2023-07-31T11:58:27;307.13;;;288.83;;
40971;SDS011;26701;47.408;19.174;2023-07-31T12:03:21;319.50;;;299.63;;
40971;SDS011;26701;47.408;19.174;2023-07-31T12:05:47;315.77;;;296.50;;
40971;SDS011;26701;47.408;19.174;2023-07-31T12:08:13;318.08;;;298.65;;
40971;SDS011;26701;47.408;19.174;2023-07-31T12:10:41;317.65;;;297.90;;
40971;SDS011;26701;47.408;19.174;2023-07-31T12:13:08;333.85;;;313.13;;
40971;SDS011;26701;47.408;19.174;2023-07-31T12:15:43;383.17;;;358.13;;
40971;SDS011;26701;47.408;19.174;2023-07-31T12:18:13;413.05;;;385.23;;
40971;SDS011;26701;47.408;19.174;2023-07-31T12:20:43;491.50;;;457.00;;
40971;SDS011;26701;47.408;19.174;2023-07-31T12:23:20;809.65;;;751.08;;
40971;SDS011;26701;47.408;19.174;2023-07-31T12:28:42;482.58;;;449.00;;
40971;SDS011;26701;47.408;19.174;2023-07-31T12:31:15;411.33;;;383.48;;
40971;SDS011;26701;47.408;19.174;2023-07-31T12:33:45;396.00;;;369.77;;
40971;SDS011;26701;47.408;19.174;2023-07-31T12:36:13;419.20;;;390.55;;
40971;SDS011;26701;47.408;19.174;2023-07-31T12:38:41;904.05;;;838.55;;
40971;SDS011;26701;47.408;19.174;2023-07-31T12:41:07;378.77;;;353.90;;
40971;SDS011;26701;47.408;19.174;2023-07-31T12:43:34;399.95;;;372.67;;
40971;SDS011;26701;47.408;19.174;2023-07-31T12:46:01;453.33;;;421.60;;
40971;SDS011;26701;47.408;19.174;2023-07-31T12:48:27;506.42;;;469.95;;
40971;SDS011;26701;47.408;19.174;2023-07-31T12:50:53;395.92;;;368.38;;
40971;SDS011;26701;47.408;19.174;2023-07-31T12:53:19;386.67;;;360.77;;
40971;SDS011;26701;47.408;19.174;2023-07-31T12:55:45;378.75;;;353.75;;
40971;SDS011;26701;47.408;19.174;2023-07-31T12:58:11;366.88;;;342.73;;
40971;SDS011;26701;47.408;19.174;2023-07-31T13:00:37;370.77;;;346.30;;
40971;SDS011;26701;47.408;19.174;2023-07-31T13:03:03;365.65;;;341.80;;
40971;SDS011;26701;47.408;19.174;2023-07-31T13:05:29;391.65;;;365.38;;
40971;SDS011;26701;47.408;19.174;2023-07-31T13:07:55;396.83;;;371.02;;
40971;SDS011;26701;47.408;19.174;2023-07-31T13:10:22;522.72;;;487.10;;
40971;SDS011;26701;47.408;19.174;2023-07-31T13:12:48;557.08;;;518.95;;
40971;SDS011;26701;47.408;19.174;2023-07-31T13:15:14;541.22;;;503.67;;
40971;SDS011;26701;47.408;19.174;2023-07-31T13:17:40;563.50;;;525.35;;
40971;SDS011;26701;47.408;19.174;2023-07-31T13:20:07;599.15;;;557.72;;
40971;SDS011;26701;47.408;19.174;2023-07-31T13:22:33;658.75;;;613.30;;
40971;SDS011;26701;47.408;19.174;2023-07-31T13:24:59;920.63;;;856.20;;
40971;SDS011;26701;47.408;19.174;2023-07-31T13:27:25;483.23;;;451.08;;
40971;SDS011;26701;47.408;19.174;2023-07-31T13:29:51;469.30;;;438.73;;
40971;SDS011;26701;47.408;19.174;2023-07-31T13:32:18;673.40;;;627.08;;
40971;SDS011;26701;47.408;19.174;2023-07-31T13:34:45;678.00;;;631.92;;
40971;SDS011;26701;47.408;19.174;2023-07-31T13:37:11;659.75;;;614.67;;
40971;SDS011;26701;47.408;19.174;2023-07-31T13:39:37;638.75;;;595.40;;
40971;SDS011;26701;47.408;19.174;2023-07-31T13:42:03;674.70;;;628.42;;
40971;SDS011;26701;47.408;19.174;2023-07-31T13:44:32;680.35;;;633.70;;
40971;SDS011;26701;47.408;19.174;2023-07-31T13:46:59;628.97;;;587.17;;
40971;SDS011;26701;47.408;19.174;2023-07-31T13:49:25;566.63;;;529.22;;
40971;SDS011;26701;47.408;19.174;2023-07-31T13:51:51;565.15;;;526.83;;